EST,Max TemperatureF,Mean TemperatureF,Min TemperatureF,Max Dew PointF,MeanDew PointF,Min DewpointF,Max Humidity, Mean Humidity, Min Humidity, Max Sea Level PressureIn, Mean Sea Level PressureIn, Min Sea Level PressureIn, Max VisibilityMiles, Mean VisibilityMiles, Min VisibilityMiles, Max Wind SpeedMPH, Mean Wind SpeedMPH, Max Gust SpeedMPH,PrecipitationIn, CloudCover, Events, WindDirDegrees
2013-1-1,70,58,46,59,52,44,93,75,57,30.15,30.02,29.94,10,8,2,15,4,20,0.08,7,Rain,215
2013-1-2,67,58,48,58,48,34,100,66,31,30.14,30.01,29.92,10,8,2,16,6,22,0.02,7,Rain,328
2013-1-3,48,39,30,43,39,31,100,83,66,30.31,30.21,30.14,10,8,6,10,4,12,0.10,5,Rain,295
2013-1-4,57,42,27,38,30,23,100,68,36,30.40,30.34,30.30,10,8,0,12,4,15,0.00,2,Fog,329
2013-1-5,53,40,27,38,28,21,92,60,28,30.41,30.35,30.27,10,10,7,8,2,9,T,1,,300
2013-1-6,56,49,42,43,38,33,82,63,43,30.27,30.22,30.15,10,10,10,10,5,14,T,6,,307
2013-1-7,56,43,30,36,33,29,96,70,43,30.38,30.32,30.26,10,10,5,15,4,20,0.00,0,,57
2013-1-8,63,50,36,47,41,34,85,71,56,30.39,30.33,30.29,10,10,9,13,6,16,0.00,7,,68
2013-1-9,67,58,48,57,51,44,100,84,68,30.42,30.36,30.32,10,10,10,9,5,12,0.00,7,,48
2013-1-10,69,62,54,64,60,54,100,91,81,30.41,30.34,30.26,10,6,1,16,6,22,0.07,8,Rain,101
2013-1-11,74,68,61,64,62,59,100,84,68,30.26,30.20,30.13,10,8,2,15,5,23,0.00,6,,162
2013-1-12,78,66,55,61,57,55,100,77,40,30.19,30.13,30.08,10,10,5,14,3,17,0.00,0,,188
2013-1-13,77,67,56,63,59,55,100,80,60,30.12,30.08,30.05,10,9,2,17,6,21,0.00,4,,177
2013-1-14,77,71,64,64,62,57,100,80,60,30.15,30.10,30.06,10,10,9,16,7,23,0.00,6,,201
2013-1-15,76,65,54,63,59,55,100,80,60,30.11,30.06,29.99,10,8,0,17,6,23,T,5,Fog,183
2013-1-16,75,70,64,67,64,59,100,84,68,30.01,29.97,29.92,10,8,2,18,7,24,0.58,8,Rain,224
2013-1-17,65,53,40,64,52,33,100,86,71,30.22,29.92,29.82,10,8,1,25,10,35,0.32,8,Rain,214
2013-1-18,58,45,32,38,33,26,100,65,30,30.51,30.41,30.24,10,10,10,13,4,21,0.00,0,,11
2013-1-19,62,45,27,41,33,25,96,68,39,30.47,30.37,30.25,10,10,6,7,0,8,0.00,2,,254
2013-1-20,68,51,33,39,35,31,100,63,26,30.25,30.17,30.10,10,9,4,10,3,16,0.00,0,,282
2013-1-21,66,48,30,40,33,24,100,66,31,30.17,30.11,30.06,10,10,7,16,6,24,0.00,0,,302
2013-1-22,53,42,30,28,21,15,85,55,24,30.33,30.26,30.17,10,10,9,20,7,25,0.00,0,,309
2013-1-23,58,42,26,39,29,19,92,63,34,30.43,30.32,30.22,10,10,7,17,5,22,0.00,2,,268
2013-1-24,68,55,41,45,36,16,80,54,27,30.35,30.24,30.17,10,10,10,20,10,29,0.00,2,,306
2013-1-25,52,44,35,40,27,17,76,57,37,30.41,30.29,30.14,10,10,9,18,6,21,0.00,5,,114
2013-1-26,61,48,34,45,36,27,89,59,28,30.29,30.21,30.14,10,10,6,28,4,68,0.00,3,,306
2013-1-27,61,47,33,40,35,32,96,68,40,30.45,30.38,30.29,10,10,7,15,6,20,0.00,3,,77
2013-1-28,66,55,44,53,42,33,100,80,60,30.43,30.36,30.27,10,9,3,9,4,10,0.00,6,,79
2013-1-29,76,60,44,62,52,43,100,79,58,30.27,30.17,30.01,10,5,0,14,4,21,0.00,6,Fog,177
2013-1-30,73,62,50,66,59,44,93,81,68,30.00,29.78,29.59,10,8,0,36,13,46,0.88,8,Fog-Rain,217
2013-1-31,56,46,36,38,25,20,80,52,24,30.22,30.09,29.87,10,10,10,25,11,38,0.00,0,,288